Time;durP1;ratioP1;P1;durP2;ratioP2;P2;SDS_P1;SDS_P2;PMS_P1;PMS_P2;Temp;Humidity;BMP_temperature;BMP_pressure;BME280_temperature;BME280_humidity;BME280_pressure;Samples;Min_cycle;Max_cycle;Signal;HPM_P1;HPM_P2
2022/02/15 00:01:52;;;;;;;;;80.00;61.67;;;;;5.79;100.00;99359.94;6315894;20;3642024;-43
2022/02/15 00:04:22;;;;;;;;;82.67;58.67;;;;;5.90;100.00;99359.47;6317239;20;3664790;-43
2022/02/15 00:06:51;;;;;;;;;76.67;60.00;;;;;5.52;100.00;99347.94;6315145;20;3637744;-43
2022/02/15 00:09:21;;;;;;;;;83.67;61.33;;;;;5.59;100.00;99346.72;6316456;20;3662774;-45
2022/02/15 00:11:50;;;;;;;;;84.00;63.00;;;;;5.49;100.00;99347.13;6284810;20;3648126;-42
2022/02/15 00:14:20;;;;;;;;;84.00;62.00;;;;;5.66;100.00;99340.16;6316705;20;3645259;-45
2022/02/15 00:16:50;;;;;;;;;80.67;60.67;;;;;5.63;100.00;99340.28;6316801;20;3646160;-44
2022/02/15 00:19:20;;;;;;;;;80.33;59.33;;;;;5.71;100.00;99344.34;6314222;20;3659698;-43
2022/02/15 00:21:50;;;;;;;;;79.00;63.00;;;;;5.69;100.00;99340.03;6283159;20;3624260;-42
2022/02/15 00:24:20;;;;;;;;;76.00;59.67;;;;;5.73;100.00;99344.25;6316949;20;3618965;-43
2022/02/15 00:26:51;;;;;;;;;79.00;58.33;;;;;5.79;100.00;99346.63;6317652;20;3647235;-43
2022/02/15 00:29:21;;;;;;;;;79.67;61.67;;;;;5.83;100.00;99350.88;6313255;20;2874216;-42
2022/02/15 00:31:52;;;;;;;;;76.00;58.00;;;;;5.68;100.00;99340.94;6314264;20;3634816;-42
2022/02/15 00:34:20;;;;;;;;;64.00;49.50;;;;;5.77;100.00;99347.66;6313599;20;2500293;-42
2022/02/15 00:36:50;;;;;;;;;78.33;60.33;;;;;5.61;100.00;99347.47;6285377;20;2874371;-43
2022/02/15 00:39:19;;;;;;;;;75.33;58.00;;;;;5.58;100.00;99339.63;6314280;20;3631529;-43
2022/02/15 00:41:49;;;;;;;;;77.67;59.00;;;;;5.88;100.00;99332.88;6315047;20;2885813;-43
2022/02/15 00:44:19;;;;;;;;;77.67;59.33;;;;;5.87;100.00;99330.28;6315306;20;2883657;-42
2022/02/15 00:46:50;;;;;;;;;77.00;60.00;;;;;5.93;100.00;99325.56;6314711;20;2875452;-43
2022/02/15 00:49:21;;;;;;;;;75.00;57.33;;;;;5.90;100.00;99324.81;6316000;20;3624295;-43
2022/02/15 00:51:51;;;;;;;;;78.00;59.00;;;;;5.85;100.00;99327.69;6314020;20;3653377;-42
2022/02/15 00:54:20;;;;;;;;;76.00;59.00;;;;;6.01;100.00;99325.19;6312407;20;3648135;-42
2022/02/15 00:56:50;;;;;;;;;80.67;60.67;;;;;5.88;100.00;99330.22;6316240;20;3648766;-42
2022/02/15 00:59:20;;;;;;;;;80.00;58.67;;;;;5.78;100.00;99331.59;6312636;20;3658565;-42
2022/02/15 01:01:49;;;;;;;;;77.67;57.67;;;;;5.87;100.00;99324.94;6283278;20;2899362;-42
2022/02/15 01:04:19;;;;;;;;;71.00;55.67;;;;;5.81;100.00;99325.25;6315783;20;3629535;-42
2022/02/15 01:06:49;;;;;;;;;81.00;58.33;;;;;5.90;100.00;99324.81;6313178;20;3654458;-42
2022/02/15 01:09:18;;;;;;;;;78.67;60.67;;;;;5.66;100.00;99324.16;6278991;20;2879664;-42
2022/02/15 01:11:48;;;;;;;;;79.00;57.33;;;;;5.89;100.00;99321.25;6315351;20;3658756;-43
2022/02/15 01:14:18;;;;;;;;;80.67;58.67;;;;;6.03;100.00;99325.09;6315746;20;3659623;-42
2022/02/15 01:16:48;;;;;;;;;72.67;57.00;;;;;5.80;100.00;99313.72;6313839;20;3633609;-42
2022/02/15 01:19:17;;;;;;;;;78.33;59.00;;;;;5.68;100.00;99320.50;6314143;20;3642949;-42
2022/02/15 01:21:47;;;;;;;;;78.00;57.67;;;;;5.56;100.00;99313.09;6314137;20;3647263;-42
2022/02/15 01:24:17;;;;;;;;;76.67;58.33;;;;;5.98;100.00;99306.69;6315247;20;3634755;-42
2022/02/15 01:26:46;;;;;;;;;71.33;54.00;;;;;5.69;100.00;99313.38;6316459;20;2872923;-42
2022/02/15 01:29:16;;;;;;;;;79.00;59.00;;;;;5.59;100.00;99301.44;6314311;20;3645111;-43
2022/02/15 01:31:45;;;;;;;;;77.33;58.00;;;;;5.84;100.00;99304.63;6316770;20;3629414;-43
2022/02/15 01:34:15;;;;;;;;;75.33;57.67;;;;;5.78;100.00;99296.09;6315184;20;3624199;-43
2022/02/15 01:36:45;;;;;;;;;75.67;55.33;;;;;5.76;100.00;99296.16;6310837;20;3640949;-43
2022/02/15 01:39:14;;;;;;;;;71.50;55.50;;;;;6.10;100.00;99299.88;6314583;20;2865859;-44
2022/02/15 01:41:44;;;;;;;;;74.33;57.33;;;;;5.97;100.00;99304.09;6283294;20;3631460;-43
2022/02/15 01:44:17;;;;;;;;;71.67;56.00;;;;;6.03;100.00;99293.13;6314346;20;2881537;-44
2022/02/15 01:46:49;;;;;;;;;77.33;56.33;;;;;5.88;100.00;99287.59;6313845;20;3635683;-42
2022/02/15 01:49:19;;;;;;;;;68.00;52.67;;;;;5.99;100.00;99280.91;6314888;20;3635690;-43
2022/02/15 01:51:50;;;;;;;;;69.00;54.00;;;;;6.02;100.00;99278.94;6314271;20;3617032;-42
2022/02/15 01:54:20;;;;;;;;;69.33;54.33;;;;;6.14;100.00;99275.66;6315791;20;3636677;-44
2022/02/15 01:56:48;;;;;;;;;64.00;53.00;;;;;5.97;100.00;99266.78;6313547;20;2868080;-43
2022/02/15 01:59:18;;;;;;;;;76.67;54.00;;;;;6.01;100.00;99273.69;6279317;20;3647229;-43
2022/02/15 02:01:48;;;;;;;;;77.33;56.33;;;;;5.98;100.00;99264.06;6312574;20;3650262;-43
2022/02/15 02:07:22;;;;;;;;;76.00;56.00;;;;;6.16;100.00;99262.25;6311080;20;3639880;-43
2022/02/15 02:09:54;;;;;;;;;69.67;52.33;;;;;5.66;100.00;99260.25;6311045;20;3637736;-44
2022/02/15 02:12:23;;;;;;;;;69.67;54.67;;;;;5.99;100.00;99264.91;6312759;20;3633608;-43
2022/02/15 02:15:19;;;;;;;;;69.33;54.33;;;;;6.03;100.00;99262.03;6312360;20;3635626;-45
2022/02/15 02:17:51;;;;;;;;;70.00;51.00;;;;;5.93;100.00;99269.59;6312184;20;3638839;-44
2022/02/15 02:20:22;;;;;;;;;71.33;52.67;;;;;6.23;100.00;99265.47;6311505;20;3633561;-44
2022/02/15 02:22:51;;;;;;;;;64.00;53.50;;;;;6.02;100.00;99262.09;6312474;20;2852532;-43
2022/02/15 02:25:23;;;;;;;;;76.67;54.67;;;;;6.01;100.00;99263.91;6280871;20;3646307;-43
2022/02/15 02:27:52;;;;;;;;;70.67;54.00;;;;;6.05;100.00;99267.25;6313724;20;2871183;-46
2022/02/15 02:30:22;;;;;;;;;70.33;54.33;;;;;5.97;100.00;99272.09;6311384;20;3637741;-44
2022/02/15 02:32:52;;;;;;;;;73.00;56.33;;;;;6.05;100.00;99267.25;6314223;20;2887890;-45
2022/02/15 02:35:22;;;;;;;;;68.67;56.00;;;;;6.04;100.00;99268.22;6313581;20;2867999;-45
2022/02/15 02:37:52;;;;;;;;;70.00;52.00;;;;;6.32;100.00;99271.22;6312279;20;2883742;-42
2022/02/15 02:40:22;;;;;;;;;76.00;56.00;;;;;6.30;100.00;99270.44;6310614;20;3644102;-42
2022/02/15 02:42:51;;;;;;;;;59.33;45.33;;;;;6.38;100.00;99273.56;6315040;20;2881745;-43
2022/02/15 02:45:22;;;;;;;;;71.67;54.00;;;;;6.18;100.00;99276.38;6312967;20;3641903;-45
2022/02/15 02:47:55;;;;;;;;;67.67;54.33;;;;;6.45;100.00;99270.56;6312894;20;2869110;-43
2022/02/15 02:50:27;;;;;;;;;66.33;53.00;;;;;6.49;100.00;99269.47;6311715;20;2859629;-43
2022/02/15 02:52:57;;;;;;;;;72.00;55.00;;;;;6.42;100.00;99273.41;6311204;20;2884903;-43
2022/02/15 02:55:26;;;;;;;;;64.00;50.67;;;;;6.45;100.00;99275.91;6312333;20;3623177;-43
2022/02/15 02:57:56;;;;;;;;;65.33;53.33;;;;;6.59;100.00;99278.75;6311175;20;2875438;-44
2022/02/15 03:00:25;;;;;;;;;71.67;55.00;;;;;6.57;100.00;99273.47;6310540;20;3645178;-45
2022/02/15 03:02:57;;;;;;;;;69.33;54.00;;;;;6.36;100.00;99275.44;6312724;20;3635882;-42
2022/02/15 03:05:26;;;;;;;;;69.67;54.00;;;;;6.54;100.00;99278.13;6314166;20;2879846;-43
2022/02/15 03:07:56;;;;;;;;;67.00;50.00;;;;;6.47;100.00;99274.03;6313061;20;3630732;-43
2022/02/15 03:10:26;;;;;;;;;66.00;52.67;;;;;6.47;100.00;99274.03;6310970;20;2864943;-44
2022/02/15 03:12:55;;;;;;;;;67.67;54.00;;;;;6.58;100.00;99285.00;6313246;20;3608684;-43
2022/02/15 03:15:25;;;;;;;;;59.00;49.33;;;;;6.52;100.00;99282.66;6312679;20;2868012;-43
2022/02/15 03:17:55;;;;;;;;;65.33;50.33;;;;;6.60;100.00;99285.78;6312752;20;2870184;-44
2022/02/15 03:20:28;;;;;;;;;61.67;49.00;;;;;6.33;100.00;99286.25;6313150;20;3628407;-42
2022/02/15 03:22:57;;;;;;;;;62.67;47.67;;;;;6.58;100.00;99285.88;6313500;20;2875472;-46
2022/02/15 03:25:27;;;;;;;;;69.67;53.00;;;;;6.67;100.00;99289.88;6312316;20;3623186;-43
2022/02/15 03:27:56;;;;;;;;;66.67;51.00;;;;;6.62;100.00;99291.91;6311654;20;2869040;-42
2022/02/15 03:30:25;;;;;;;;;54.50;45.00;;;;;6.59;100.00;99289.41;6309863;20;2858588;-42
2022/02/15 03:32:55;;;;;;;;;50.00;32.50;;;;;6.74;100.00;99293.94;6283388;20;2864860;-44
2022/02/15 03:35:24;;;;;;;;;59.67;49.00;;;;;6.58;100.00;99293.00;6282493;20;2869125;-43
2022/02/15 03:37:53;;;;;;;;;65.50;52.50;;;;;6.58;100.00;99301.00;6312094;20;2856665;-43
2022/02/15 03:43:04;;;;;;;;;58.33;44.67;;;;;6.52;100.00;99298.66;6278438;20;2863970;-43
2022/02/15 03:43:12;;;;;;;;;64.67;49.33;;;;;6.73;100.00;99296.69;6310847;20;3620019;-44
2022/02/15 03:45:42;;;;;;;;;68.33;48.67;;;;;6.55;100.00;99303.81;6311639;20;3638820;-43
2022/02/15 03:48:11;;;;;;;;;70.67;52.33;;;;;6.66;100.00;99303.28;6311642;20;3641901;-43
2022/02/15 03:50:41;;;;;;;;;71.00;50.67;;;;;6.46;100.00;99306.97;6311923;20;3644060;-43
2022/02/15 03:53:12;;;;;;;;;60.33;50.67;;;;;6.46;100.00;99306.97;6310764;20;2863808;-45
2022/02/15 03:55:46;;;;;;;;;66.67;52.33;;;;;6.46;100.00;99309.66;6312658;20;2873283;-45
2022/02/15 03:58:16;;;;;;;;;71.00;51.67;;;;;6.37;100.00;99308.28;6311294;20;3634637;-44
2022/02/15 04:00:46;;;;;;;;;68.33;50.00;;;;;6.32;100.00;99308.53;6308130;20;3640868;-43
2022/02/15 04:03:16;;;;;;;;;70.67;52.33;;;;;6.42;100.00;99311.59;6311028;20;2878494;-44
2022/02/15 04:05:45;;;;;;;;;69.67;55.33;;;;;6.45;100.00;99315.91;6310547;20;3626376;-45
2022/02/15 04:08:15;;;;;;;;;65.00;47.33;;;;;6.81;100.00;99314.00;6312030;20;2881562;-44
2022/02/15 04:10:44;;;;;;;;;67.33;54.00;;;;;6.63;100.00;99320.28;6310649;20;3623182;-46
2022/02/15 04:13:14;;;;;;;;;64.33;49.00;;;;;6.62;99.97;99318.59;6312148;20;3621190;-47
2022/02/15 04:15:45;;;;;;;;;61.33;49.00;;;;;6.53;100.00;99325.25;6310539;20;2859706;-48
2022/02/15 04:18:14;;;;;;;;;66.50;54.50;;;;;6.53;100.00;99317.25;6311579;20;2866967;-45
2022/02/15 04:20:43;;;;;;;;;66.33;51.33;;;;;6.66;100.00;99325.50;6278716;20;3637771;-46
2022/02/15 04:23:13;;;;;;;;;62.33;51.67;;;;;6.56;100.00;99321.56;6311020;20;3620172;-44
2022/02/15 04:25:42;;;;;;;;;61.33;50.00;;;;;6.67;100.00;99321.03;6310095;20;3620043;-45
2022/02/15 04:28:12;;;;;;;;;63.00;50.33;;;;;6.65;100.00;99325.56;6311512;20;2872353;-44
2022/02/15 04:30:41;;;;;;;;;56.00;47.50;;;;;6.60;100.00;99328.47;6310656;20;2864859;-44
2022/02/15 04:33:11;;;;;;;;;61.67;49.33;;;;;6.46;100.00;99329.16;6280505;20;3617137;-45
2022/02/15 04:35:41;;;;;;;;;66.33;51.33;;;;;6.43;100.00;99325.81;6311553;20;3629520;-43
2022/02/15 04:38:09;;;;;;;;;64.00;51.00;;;;;6.43;100.00;99334.66;6309526;20;2854420;-45
2022/02/15 04:40:38;;;;;;;;;66.00;53.50;;;;;6.65;100.00;99328.22;6278703;20;2873711;-46
2022/02/15 04:43:07;;;;;;;;;72.00;54.33;;;;;6.57;100.00;99329.47;6278492;20;3648231;-44
2022/02/15 04:45:35;;;;;;;;;67.00;51.50;;;;;6.50;100.00;99329.88;6315438;20;2855481;-44
2022/02/15 04:48:05;;;;;;;;;76.33;55.00;;;;;6.55;100.00;99322.50;6284928;20;3648326;-44
2022/02/15 04:50:35;;;;;;;;;74.67;58.00;;;;;6.31;100.00;99319.28;6315609;20;2876406;-44
2022/02/15 04:53:05;;;;;;;;;69.67;54.33;;;;;6.40;100.00;99329.50;6316275;20;3628451;-43
2022/02/15 04:55:34;;;;;;;;;79.33;57.67;;;;;6.51;100.00;99326.28;6315752;20;3636683;-44
2022/02/15 04:58:04;;;;;;;;;76.67;58.67;;;;;6.69;100.00;99329.78;6315162;20;3644157;-43
2022/02/15 05:00:34;;;;;;;;;77.67;58.67;;;;;6.68;100.00;99328.94;6313511;20;3643091;-45
2022/02/15 05:03:04;;;;;;;;;75.00;58.00;;;;;6.44;100.00;99327.53;6315378;20;3631469;-45
2022/02/15 05:05:34;;;;;;;;;77.67;60.33;;;;;6.70;100.00;99320.88;6315346;20;3641884;-44
2022/02/15 05:08:04;;;;;;;;;80.00;61.00;;;;;6.35;100.00;99329.72;6314456;20;3649340;-43
2022/02/15 05:10:34;;;;;;;;;76.33;60.00;;;;;6.66;100.00;99336.19;6317253;20;3626267;-43
2022/02/15 05:13:11;;;;;;;;;78.67;58.67;;;;;6.64;100.00;99331.84;6312163;20;3636834;-43
2022/02/15 05:15:40;;;;;;;;;72.50;57.00;;;;;6.31;100.00;99335.28;6315093;20;2879443;-43
2022/02/15 05:18:09;;;;;;;;;67.50;51.00;;;;;6.44;100.00;99330.19;6283073;20;2877330;-45
2022/02/15 05:20:39;;;;;;;;;71.00;52.33;;;;;6.40;100.00;99337.50;6283308;20;2865902;-44
2022/02/15 05:23:09;;;;;;;;;71.33;56.67;;;;;6.60;100.00;99331.13;6315015;20;2868722;-44
2022/02/15 05:25:40;;;;;;;;;74.33;58.67;;;;;6.42;100.00;99332.91;6314957;20;3637319;-43
2022/02/15 05:28:09;;;;;;;;;60.00;50.00;;;;;6.18;100.00;99337.69;6314506;20;2864833;-42
2022/02/15 05:30:38;;;;;;;;;71.33;53.67;;;;;6.22;100.00;99338.41;6283791;20;3639830;-43
2022/02/15 05:33:08;;;;;;;;;67.67;53.67;;;;;6.27;100.00;99342.56;6312526;20;3629473;-43
2022/02/15 05:35:41;;;;;;;;;78.00;61.00;;;;;6.48;100.00;99343.31;6315470;20;3640852;-43
2022/02/15 05:38:11;;;;;;;;;70.33;55.67;;;;;6.12;100.00;99345.97;6313075;20;3618077;-44
2022/02/15 05:40:41;;;;;;;;;58.00;46.00;;;;;6.15;100.00;99352.00;6314598;20;2872335;-42
2022/02/15 05:43:13;;;;;;;;;60.67;49.33;;;;;6.34;100.00;99351.97;6313472;20;2861739;-43
2022/02/15 05:45:49;;;;;;;;;65.33;50.00;;;;;6.43;100.00;99349.81;6315772;20;3620081;-44
2022/02/15 05:48:18;;;;;;;;;70.67;54.67;;;;;6.32;100.00;99356.53;6314786;20;3631695;-43
2022/02/15 05:50:51;;;;;;;;;61.33;50.33;;;;;6.29;100.00;99359.34;6311994;20;2866997;-43
2022/02/15 05:53:27;;;;;;;;;66.00;48.33;;;;;6.42;100.00;99354.25;6313476;20;3634675;-44
2022/02/15 05:56:02;;;;;;;;;61.33;47.67;;;;;6.32;100.00;99359.19;6313239;20;2870262;-46
2022/02/15 05:58:32;;;;;;;;;62.00;49.00;;;;;6.60;100.00;99355.13;6313705;20;2869052;-46
2022/02/15 06:01:02;;;;;;;;;68.00;50.00;;;;;6.79;99.18;99363.94;6307509;20;2875344;-46
2022/02/15 06:06:21;;;;;;;;;71.67;52.67;;;;;6.51;100.00;99374.28;6312730;20;2877569;-43
2022/02/15 06:08:51;;;;;;;;;63.67;48.67;;;;;6.66;99.71;99368.19;6312957;20;2876333;-44
2022/02/15 06:11:19;;;;;;;;;60.50;50.00;;;;;6.68;100.00;99370.75;6314737;20;2850305;-44
2022/02/15 06:13:50;;;;;;;;;65.00;50.00;;;;;6.63;100.00;99372.78;6282878;20;2869030;-45
2022/02/15 06:16:24;;;;;;;;;65.00;49.33;;;;;6.58;100.00;99378.34;6282123;20;3640042;-45
2022/02/15 06:18:57;;;;;;;;;61.00;48.00;;;;;6.73;100.00;99377.59;6313443;20;2864824;-47
2022/02/15 06:21:26;;;;;;;;;63.33;49.00;;;;;6.72;100.00;99383.00;6282379;20;2872133;-44
2022/02/15 06:23:57;;;;;;;;;64.00;48.00;;;;;6.79;100.00;99384.41;6311524;20;2862223;-45
2022/02/15 06:26:47;;;;;;;;;71.00;55.67;;;;;6.79;99.49;99385.28;6284787;20;3631492;-45
2022/02/15 06:29:16;;;;;;;;;75.00;56.00;;;;;6.95;99.80;99392.50;6314242;20;3629578;-44
2022/02/15 06:31:45;;;;;;;;;58.00;48.00;;;;;6.79;99.71;99389.75;6314605;20;2858800;-47
2022/02/15 06:34:14;;;;;;;;;66.00;53.00;;;;;6.97;98.93;99387.94;6282644;20;2862754;-44
2022/02/15 06:36:44;;;;;;;;;71.67;57.00;;;;;7.21;98.46;99392.03;6283185;20;2871138;-44
2022/02/15 06:39:14;;;;;;;;;73.33;56.00;;;;;7.11;98.14;99389.88;6311468;20;3638760;-45
2022/02/15 06:41:43;;;;;;;;;91.67;73.00;;;;;7.04;98.82;99392.03;6312486;20;3651286;-45
2022/02/15 06:44:13;;;;;;;;;75.00;61.00;;;;;6.65;99.85;99398.44;6277110;20;2877380;-46
2022/02/15 06:46:43;;;;;;;;;75.67;58.33;;;;;6.56;100.00;99393.59;6313787;20;3631517;-45
2022/02/15 06:49:13;;;;;;;;;72.33;52.00;;;;;6.62;100.00;99398.59;6313585;20;3644114;-44
2022/02/15 06:51:42;;;;;;;;;65.00;51.33;;;;;6.62;100.00;99403.94;6313450;20;3619993;-46
2022/02/15 06:54:12;;;;;;;;;70.33;50.67;;;;;6.51;100.00;99407.16;6313705;20;3642953;-46
2022/02/15 06:56:41;;;;;;;;;68.33;51.33;;;;;6.57;100.00;99403.31;6313733;20;2873298;-43
2022/02/15 06:59:13;;;;;;;;;62.33;51.00;;;;;6.91;100.00;99406.94;6311136;20;3609627;-43
2022/02/15 07:01:43;;;;;;;;;66.67;52.33;;;;;7.00;100.00;99409.13;6312115;20;2866912;-46
2022/02/15 07:04:13;;;;;;;;;71.00;55.67;;;;;6.94;99.87;99409.47;6311943;20;3620316;-43
2022/02/15 07:06:42;;;;;;;;;76.67;59.00;;;;;7.18;98.96;99412.66;6311402;20;3623150;-44
2022/02/15 07:09:12;;;;;;;;;77.67;58.33;;;;;6.93;98.88;99413.09;6311517;20;3651259;-42
2022/02/15 07:11:42;;;;;;;;;81.67;62.00;;;;;6.92;98.84;99406.84;6312983;20;3640845;-44
2022/02/15 07:14:11;;;;;;;;;92.00;77.50;;;;;6.90;99.67;99406.09;6315874;20;4426291;-44
2022/02/15 07:16:43;;;;;;;;;128.00;106.00;;;;;6.83;100.00;99412.69;6305299;20;1947990;-45
2022/02/15 07:19:12;;;;;;;;;80.00;62.67;;;;;6.77;99.74;99413.84;6279574;20;2880486;-43
2022/02/15 07:21:43;;;;;;;;;81.33;60.00;;;;;6.78;100.00;99422.72;6311776;20;3636701;-44
2022/02/15 07:24:13;;;;;;;;;63.33;49.33;;;;;6.63;100.00;99416.31;6313332;20;2881587;-46
2022/02/15 07:26:42;;;;;;;;;62.33;46.67;;;;;6.50;100.00;99416.09;6310844;20;2880494;-45
2022/02/15 07:29:12;;;;;;;;;71.33;53.67;;;;;6.44;100.00;99415.53;6311836;20;2882629;-45
2022/02/15 07:31:42;;;;;;;;;71.33;54.33;;;;;6.50;100.00;99416.09;6311523;20;3638806;-43
2022/02/15 07:34:11;;;;;;;;;69.67;53.00;;;;;6.74;100.00;99422.03;6311228;20;3641926;-43
2022/02/15 07:36:40;;;;;;;;;66.50;56.50;;;;;6.90;100.00;99419.44;6311824;20;2881574;-46
2022/02/15 07:39:11;;;;;;;;;66.67;53.33;;;;;6.94;100.00;99423.66;6280038;20;3616917;-43
2022/02/15 07:41:40;;;;;;;;;68.33;53.00;;;;;7.29;99.64;99422.78;6312277;20;3632564;-44
2022/02/15 07:44:10;;;;;;;;;63.33;49.33;;;;;7.04;99.11;99422.25;6312497;20;2866025;-43
2022/02/15 07:46:39;;;;;;;;;61.00;51.33;;;;;7.13;99.82;99426.25;6312281;20;2867135;-46
2022/02/15 07:49:09;;;;;;;;;68.67;53.33;;;;;7.46;99.09;99428.09;6310136;20;3631501;-47
2022/02/15 07:51:39;;;;;;;;;71.67;54.00;;;;;7.31;99.24;99423.56;6311937;20;3626326;-44
2022/02/15 07:54:07;;;;;;;;;62.50;52.50;;;;;7.20;99.94;99425.00;6310605;20;2858608;-46
2022/02/15 07:56:37;;;;;;;;;63.00;49.00;;;;;7.26;99.67;99432.66;6277938;20;2871100;-44
2022/02/15 07:59:06;;;;;;;;;63.33;50.00;;;;;7.01;100.00;99432.22;6311079;20;2852416;-44
2022/02/15 08:01:36;;;;;;;;;67.33;51.67;;;;;7.29;99.46;99434.31;6311384;20;2872458;-45
2022/02/15 08:04:05;;;;;;;;;61.50;51.00;;;;;7.33;98.81;99427.03;6312283;20;2848372;-45
2022/02/15 08:06:36;;;;;;;;;65.33;48.00;;;;;7.56;97.81;99424.00;6280140;20;3634601;-45
2022/02/15 08:09:14;;;;;;;;;62.67;51.33;;;;;7.45;99.99;99426.38;6309712;20;3624163;-44
2022/02/15 08:11:44;;;;;;;;;69.33;54.00;;;;;7.41;99.50;99432.84;6311764;20;3635680;-46
2022/02/15 08:14:13;;;;;;;;;59.67;49.00;;;;;7.47;100.00;99440.50;6311551;20;2871092;-46
2022/02/15 08:16:43;;;;;;;;;65.00;49.67;;;;;6.95;100.00;99443.19;6311679;20;2878476;-45
2022/02/15 08:19:12;;;;;;;;;54.33;47.67;;;;;7.58;100.00;99451.50;6310571;20;2877337;-46
2022/02/15 08:21:41;;;;;;;;;63.50;51.50;;;;;7.76;98.90;99454.13;6317443;20;2863960;-47
2022/02/15 08:24:10;;;;;;;;;67.00;51.33;;;;;7.60;98.09;99446.94;6284327;20;2873447;-47
2022/02/15 08:26:42;;;;;;;;;66.00;51.00;;;;;7.78;97.51;99453.09;6315230;20;3634708;-47
2022/02/15 08:29:14;;;;;;;;;85.00;65.33;;;;;8.05;95.89;99453.41;6315656;20;3633555;-45
2022/02/15 08:31:44;;;;;;;;;61.67;49.00;;;;;8.33;94.39;99455.41;6315556;20;2871182;-48
2022/02/15 08:34:14;;;;;;;;;68.33;52.00;;;;;8.00;94.04;99450.13;6316317;20;3638847;-45
2022/02/15 08:36:44;;;;;;;;;59.67;45.00;;;;;8.26;94.74;99455.84;6316451;20;3623124;-45
2022/02/15 08:39:15;;;;;;;;;67.33;51.00;;;;;8.21;94.55;99447.22;6313072;20;3628372;-46
2022/02/15 08:41:45;;;;;;;;;69.67;55.33;;;;;8.61;92.91;99447.66;6315677;20;2873270;-43
2022/02/15 08:44:15;;;;;;;;;66.33;51.00;;;;;8.55;92.59;99454.22;6314632;20;3627309;-46
2022/02/15 08:46:46;;;;;;;;;60.00;47.67;;;;;8.75;92.42;99453.09;6317537;20;3611702;-45
2022/02/15 08:49:15;;;;;;;;;64.00;49.33;;;;;8.26;94.61;99455.84;6315730;20;3616931;-48
2022/02/15 08:51:46;;;;;;;;;65.67;49.00;;;;;9.07;93.55;99458.38;6316148;20;2880602;-43
2022/02/15 08:54:16;;;;;;;;;68.67;51.67;;;;;8.67;91.30;99458.03;6316768;20;3634704;-45
2022/02/15 08:56:47;;;;;;;;;59.00;46.00;;;;;8.72;92.50;99454.13;6319510;20;3615915;-43
2022/02/15 08:59:16;;;;;;;;;55.00;44.67;;;;;9.15;90.72;99453.44;6317588;20;3612714;-43
2022/02/15 09:01:46;;;;;;;;;57.00;45.33;;;;;9.55;88.88;99453.69;6320347;20;2863844;-44
2022/02/15 09:04:18;;;;;;;;;58.67;46.00;;;;;9.28;86.55;99451.75;6318198;20;2873223;-44
2022/02/15 09:06:48;;;;;;;;;61.33;48.33;;;;;9.20;88.46;99459.38;6319770;20;2870128;-53
2022/02/15 09:09:18;;;;;;;;;68.67;55.33;;;;;9.26;89.80;99458.16;6318180;20;2879500;-50
2022/02/15 09:11:48;;;;;;;;;72.33;54.67;;;;;9.48;88.78;99458.59;6318591;20;3627446;-50
2022/02/15 09:14:18;;;;;;;;;56.33;44.00;;;;;9.91;86.40;99465.81;6315455;20;3614939;-54
2022/02/15 09:16:49;;;;;;;;;64.00;49.67;;;;;10.09;85.30;99460.13;6318956;20;3631529;-53
2022/02/15 09:19:19;;;;;;;;;68.00;54.00;;;;;10.51;84.45;99460.22;6317439;20;3611702;-51
2022/02/15 09:21:50;;;;;;;;;60.33;45.67;;;;;10.14;83.12;99467.91;6318795;20;3625222;-52
2022/02/15 09:24:20;;;;;;;;;61.33;48.00;;;;;10.29;84.84;99471.44;6317377;20;2875344;-54
2022/02/15 09:26:50;;;;;;;;;57.00;44.00;;;;;10.48;85.63;99471.16;6318962;20;3622269;-49
2022/02/15 09:29:20;;;;;;;;;53.00;44.33;;;;;10.31;84.56;99470.38;6316080;20;2870153;-53
2022/02/15 09:31:49;;;;;;;;;53.50;43.50;;;;;9.56;87.39;99466.16;6318017;20;2851275;-50
2022/02/15 09:34:23;;;;;;;;;62.00;48.00;;;;;9.61;86.35;99472.06;6286108;20;3622097;-52
2022/02/15 09:36:52;;;;;;;;;56.67;46.33;;;;;10.32;83.52;99477.50;6317592;20;2858673;-50
2022/02/15 09:39:21;;;;;;;;;57.50;47.00;;;;;9.84;83.73;99476.03;6316680;20;2837776;-51
2022/02/15 09:41:50;;;;;;;;;58.00;46.00;;;;;9.73;85.34;99475.84;6285606;20;2858792;-55
2022/02/15 09:44:19;;;;;;;;;61.33;49.00;;;;;10.17;84.70;99467.72;6284224;20;3614874;-53
2022/02/15 09:46:54;;;;;;;;;56.67;47.33;;;;;10.00;85.01;99468.75;6317980;20;2860674;-50
2022/02/15 09:52:24;;;;;;;;;70.33;54.67;;;;;10.49;83.13;99468.34;6313035;20;3633625;-48
2022/02/15 09:54:55;;;;;;;;;64.33;49.67;;;;;10.08;85.76;99469.16;6313774;20;2853420;-47
2022/02/15 09:57:26;;;;;;;;;73.33;56.33;;;;;10.36;86.37;99462.06;6313123;20;3628357;-50
2022/02/15 09:59:56;;;;;;;;;61.00;49.33;;;;;9.89;86.00;99461.38;6313915;20;2861127;-53
2022/02/15 10:02:30;;;;;;;;;69.67;50.33;;;;;10.10;87.51;99461.84;6317058;20;3636713;-50
2022/02/15 10:04:59;;;;;;;;;62.67;50.67;;;;;10.36;84.26;99463.88;6317987;20;3609642;-49
2022/02/15 10:07:29;;;;;;;;;65.00;49.50;;;;;10.48;84.06;99460.41;6317751;20;3565386;-52
2022/02/15 10:09:59;;;;;;;;;60.67;49.67;;;;;10.75;84.50;99452.38;6317496;20;2883597;-47
2022/02/15 10:12:32;;;;;;;;;57.33;43.00;;;;;10.74;84.52;99451.50;6318402;20;3619017;-48
2022/02/15 10:15:10;;;;;;;;;69.67;55.00;;;;;10.56;83.19;99450.03;6318895;20;3609666;-53
2022/02/15 10:17:44;;;;;;;;;63.00;48.00;;;;;11.02;82.60;99446.97;6317918;20;2864871;-54
2022/02/15 10:20:13;;;;;;;;;56.00;46.00;;;;;11.19;81.45;99451.22;6315736;20;2848158;-52
2022/02/15 10:22:41;;;;;;;;;63.00;49.00;;;;;11.59;80.89;99446.66;6281987;20;2752407;-53
2022/02/15 10:25:12;;;;;;;;;55.67;42.00;;;;;11.46;80.14;99448.47;6284073;20;2865003;-49
2022/02/15 10:27:46;;;;;;;;;70.67;55.33;;;;;11.23;82.29;99446.50;6317978;20;3631539;-48
2022/02/15 10:30:14;;;;;;;;;80.33;64.67;;;;;11.64;81.09;99441.81;6317658;20;3637736;-51
2022/02/15 10:32:43;;;;;;;;;68.67;54.67;;;;;12.16;81.23;99457.94;6283967;20;3620092;-49
2022/02/15 10:35:13;;;;;;;;;54.67;44.33;;;;;12.06;78.35;99450.53;6285674;20;2863784;-49
2022/02/15 10:37:42;;;;;;;;;58.00;48.00;;;;;11.63;81.16;99456.19;6316393;20;2861170;-50
2022/02/15 10:40:13;;;;;;;;;62.67;48.00;;;;;11.55;82.02;99446.94;6317775;20;3632667;-52
2022/02/15 10:42:42;;;;;;;;;61.33;46.67;;;;;12.06;78.78;99449.69;6280688;20;3627331;-49
2022/02/15 10:45:12;;;;;;;;;61.00;47.33;;;;;11.79;80.10;99455.13;6314435;20;3625410;-50
2022/02/15 10:47:45;;;;;;;;;56.33;45.00;;;;;11.89;77.57;99460.78;6317005;20;2865085;-49
2022/02/15 10:50:16;;;;;;;;;57.33;45.67;;;;;11.42;80.86;99447.78;6314930;20;2864857;-49
2022/02/15 10:52:46;;;;;;;;;63.33;50.67;;;;;11.64;82.50;99444.50;6316102;20;2864958;-48
2022/02/15 10:55:15;;;;;;;;;81.33;64.00;;;;;11.52;82.66;99442.66;6317398;20;3643967;-48
2022/02/15 10:57:47;;;;;;;;;92.14;83.71;;;;;11.47;81.11;99444.78;6312506;20;3693061;-52
2022/02/15 11:00:17;;;;;;;;;73.33;56.33;;;;;11.82;80.38;99449.53;6280416;20;3636050;-50
2022/02/15 11:02:47;;;;;;;;;57.33;46.00;;;;;12.06;78.21;99447.00;6316294;20;2856576;-48
2022/02/15 11:05:17;;;;;;;;;52.00;43.00;;;;;11.69;79.96;99446.88;6316768;20;2860725;-51
2022/02/15 11:07:46;;;;;;;;;58.67;45.33;;;;;11.77;80.32;99451.69;6316928;20;3627405;-48
2022/02/15 11:10:31;;;;;;;;;66.33;52.67;;;;;12.18;78.71;99442.53;6310050;20;3624481;-48
2022/02/15 11:13:01;;;;;;;;;58.33;48.00;;;;;12.03;79.66;99448.06;6312960;20;3604410;-48
2022/02/15 11:15:35;;;;;;;;;64.33;48.67;;;;;11.70;80.86;99440.50;6313152;20;3633603;-49
2022/02/15 11:18:10;;;;;;;;;59.67;46.33;;;;;11.40;81.66;99448.88;6312780;20;3625431;-43
2022/02/15 11:20:50;;;;;;;;;54.00;45.00;;;;;11.94;79.68;99443.31;6313196;20;2845063;-43
2022/02/15 11:23:27;;;;;;;;;72.67;55.33;;;;;12.37;78.85;99442.06;6282272;20;3649224;-46
2022/02/15 11:26:17;;;;;;;;;53.50;42.50;;;;;12.15;78.63;99445.47;6282662;20;2863839;-46